Time;durP1;ratioP1;P1;durP2;ratioP2;P2;SDS_P1;SDS_P2;PMS_P1;PMS_P2;Temp;Humidity;BMP_temperature;BMP_pressure;BME280_temperature;BME280_humidity;BME280_pressure;Samples;Min_cycle;Max_cycle;Signal;HPM_P1;HPM_P2
2022/01/05 00:00:27;;;;;;;24.27;22.27;;;;;;;7.39;100.00;97138.63;2086399;28;20226;-76
2022/01/05 00:01:29;;;;;;;24.03;22.23;;;;;;;7.34;100.00;97145.66;2086497;28;20697;-75
2022/01/05 00:02:30;;;;;;;23.05;21.35;;;;;;;7.37;100.00;97158.28;2086369;28;20309;-75
2022/01/05 00:03:31;;;;;;;24.23;22.50;;;;;;;7.38;100.00;97174.97;2086477;28;20306;-75
2022/01/05 00:04:32;;;;;;;24.33;22.63;;;;;;;7.34;100.00;97171.41;2086230;28;20222;-75
2022/01/05 00:05:34;;;;;;;23.47;21.70;;;;;;;7.36;100.00;97172.63;2086485;28;20251;-75
2022/01/05 00:06:36;;;;;;;23.75;22.02;;;;;;;7.28;100.00;97162.84;2087091;28;20577;-75
2022/01/05 00:07:45;;;;;;;22.92;21.23;;;;;;;7.30;100.00;97168.63;2085920;28;20573;-74
2022/01/05 00:08:45;;;;;;;22.88;21.08;;;;;;;7.27;100.00;97163.16;2086293;28;20219;-75
2022/01/05 00:09:48;;;;;;;22.43;20.83;;;;;;;7.22;100.00;97166.81;2086330;28;20301;-75
2022/01/05 00:10:49;;;;;;;21.92;20.30;;;;;;;7.20;100.00;97174.28;2078316;28;20215;-75
2022/01/05 00:11:50;;;;;;;24.00;22.10;;;;;;;7.20;100.00;97192.06;2086277;28;20653;-75
2022/01/05 00:12:51;;;;;;;23.60;21.70;;;;;;;7.22;100.00;97193.31;2094592;28;20692;-75
2022/01/05 00:13:56;;;;;;;24.00;22.20;;;;;;;7.22;100.00;97188.03;2085865;28;20638;-75
2022/01/05 00:14:56;;;;;;;25.50;23.50;;;;;;;7.22;100.00;97188.03;2078713;28;20376;-75
2022/01/05 00:15:58;;;;;;;25.70;23.70;;;;;;;7.21;100.00;97191.78;2078035;28;20239;-75
2022/01/05 00:16:59;;;;;;;26.52;24.02;;;;;;;7.23;100.00;97199.41;2086320;28;20229;-77
2022/01/05 00:18:00;;;;;;;23.63;21.83;;;;;;;7.19;100.00;97209.09;2086249;28;20315;-76
2022/01/05 00:19:02;;;;;;;25.33;23.30;;;;;;;7.16;100.00;97207.84;2078336;28;20289;-76
2022/01/05 00:20:05;;;;;;;25.83;23.85;;;;;;;7.13;100.00;97203.19;2086501;28;20223;-75
2022/01/05 00:21:06;;;;;;;27.10;24.90;;;;;;;7.06;100.00;97206.34;2086609;28;20218;-75
2022/01/05 00:22:09;;;;;;;26.27;24.13;;;;;;;7.01;100.00;97211.81;2086069;28;20223;-75
2022/01/05 00:23:10;;;;;;;25.75;23.35;;;;;;;6.98;100.00;97203.72;2086172;28;20239;-75
2022/01/05 00:24:11;;;;;;;24.53;22.63;;;;;;;6.98;100.00;97201.06;2086312;28;20226;-75
2022/01/05 00:25:12;;;;;;;26.08;24.02;;;;;;;6.99;100.00;97202.63;2086976;28;20230;-75
2022/01/05 00:26:14;;;;;;;25.07;23.07;;;;;;;6.95;100.00;97206.97;2087056;28;20313;-76
2022/01/05 00:27:15;;;;;;;25.48;23.25;;;;;;;6.92;100.00;97218.22;2086262;28;20265;-75
2022/01/05 00:28:17;;;;;;;28.25;25.80;;;;;;;6.88;100.00;97217.31;2086057;28;20782;-75
2022/01/05 00:29:19;;;;;;;26.90;24.73;;;;;;;6.90;100.00;97215.13;2086400;28;20219;-75
2022/01/05 00:30:19;;;;;;;27.00;24.80;;;;;;;6.89;100.00;97213.56;2087172;28;20219;-75
2022/01/05 00:31:21;;;;;;;27.30;25.30;;;;;;;6.87;100.00;97213.91;2086364;28;20691;-75
2022/01/05 00:32:23;;;;;;;30.42;28.02;;;;;;;6.85;100.00;97215.28;2085755;28;20642;-75
2022/01/05 00:33:24;;;;;;;26.45;24.35;;;;;;;6.83;100.00;97214.84;2086117;28;20288;-75
2022/01/05 00:34:27;;;;;;;27.25;25.05;;;;;;;6.85;100.00;97205.47;2086326;28;20229;-75
2022/01/05 00:35:31;;;;;;;25.38;23.35;;;;;;;6.82;100.00;97202.69;2086989;28;20307;-75
2022/01/05 00:36:32;;;;;;;26.23;24.10;;;;;;;6.89;100.00;97200.31;2087125;28;20226;-75
2022/01/05 00:37:35;;;;;;;26.87;24.73;;;;;;;6.86;100.00;97212.31;2087129;28;20268;-75
2022/01/05 00:38:36;;;;;;;29.40;26.98;;;;;;;6.83;100.00;97212.97;2086995;28;20574;-75
2022/01/05 00:39:37;;;;;;;29.50;27.10;;;;;;;6.84;100.00;97216.38;2086580;28;20310;-75
2022/01/05 00:40:38;;;;;;;28.80;26.60;;;;;;;6.79;100.00;97218.13;2086992;28;20962;-75
2022/01/05 00:41:42;;;;;;;28.17;25.90;;;;;;;6.73;100.00;97224.69;2087129;28;20639;-75
2022/01/05 00:42:44;;;;;;;28.98;26.80;;;;;;;6.70;100.00;97230.63;2086189;28;20238;-75
2022/01/05 00:43:46;;;;;;;28.75;26.35;;;;;;;6.70;100.00;97230.63;2086181;28;20784;-75
2022/01/05 00:44:46;;;;;;;27.17;25.02;;;;;;;6.67;100.00;97239.19;2086331;28;20218;-75
2022/01/05 00:45:48;;;;;;;27.33;25.17;;;;;;;6.66;100.00;97244.78;2086308;28;20276;-75
2022/01/05 00:46:49;;;;;;;28.15;25.85;;;;;;;6.61;100.00;97243.09;2086257;28;20298;-76
2022/01/05 00:47:51;;;;;;;27.80;25.30;;;;;;;6.61;100.00;97229.09;2086141;28;20306;-75
2022/01/05 00:48:53;;;;;;;28.73;26.20;;;;;;;6.62;100.00;97228.75;2086692;28;20689;-75
2022/01/05 00:49:54;;;;;;;27.37;24.87;;;;;;;6.60;100.00;97233.56;2086163;28;20661;-75
2022/01/05 00:50:55;;;;;;;28.35;26.08;;;;;;;6.53;100.00;97233.31;2077978;28;20238;-76
2022/01/05 00:51:57;;;;;;;27.97;25.70;;;;;;;6.50;100.00;97231.25;2077863;28;20317;-75
2022/01/05 00:53:00;;;;;;;27.92;25.63;;;;;;;6.45;100.00;97229.56;2078020;28;20692;-75
2022/01/05 00:54:02;;;;;;;29.45;27.05;;;;;;;6.44;100.00;97233.31;2077844;28;20235;-75
2022/01/05 00:55:11;;;;;;;27.95;25.67;;;;;;;6.47;100.00;97237.19;2086070;28;20242;-75
2022/01/05 00:56:15;;;;;;;29.13;26.60;;;;;;;6.46;100.00;97240.94;2085993;28;20300;-75
2022/01/05 00:57:16;;;;;;;28.92;26.60;;;;;;;6.42;100.00;97234.69;2086868;28;20214;-75
2022/01/05 00:58:17;;;;;;;29.70;27.30;;;;;;;6.42;100.00;97232.03;2086847;28;20219;-75
2022/01/05 00:59:18;;;;;;;29.17;26.77;;;;;;;6.43;100.00;97236.28;2086083;28;20715;-75
2022/01/05 01:00:20;;;;;;;31.17;28.47;;;;;;;6.47;100.00;97235.31;2077821;28;20683;-75
2022/01/05 01:01:20;;;;;;;31.17;28.58;;;;;;;6.44;100.00;97230.66;2086092;28;20285;-75
2022/01/05 01:02:23;;;;;;;29.20;26.53;;;;;;;6.43;100.00;97230.97;2086337;28;20242;-75
2022/01/05 01:03:27;;;;;;;30.65;28.05;;;;;;;6.43;100.00;97230.97;2085575;28;20306;-75
2022/01/05 01:04:28;;;;;;;33.75;30.95;;;;;;;6.40;100.00;97228.94;2086721;28;20759;-75
2022/01/05 01:05:29;;;;;;;30.60;28.10;;;;;;;6.46;100.00;97230.34;2086875;28;20223;-75
2022/01/05 01:06:31;;;;;;;30.37;27.77;;;;;;;6.45;100.00;97242.03;2086862;28;20238;-75
2022/01/05 01:07:32;;;;;;;31.15;28.40;;;;;;;6.41;100.00;97243.72;2085596;28;20265;-75
2022/01/05 01:08:35;;;;;;;31.67;28.70;;;;;;;6.43;100.00;97244.22;2077732;28;20735;-75
2022/01/05 01:09:36;;;;;;;31.80;28.90;;;;;;;6.39;100.00;97237.97;2086141;28;20219;-75
2022/01/05 01:10:45;;;;;;;30.23;27.63;;;;;;;6.37;100.00;97233.00;2085603;28;20247;-75
2022/01/05 01:11:46;;;;;;;27.98;25.67;;;;;;;6.34;100.00;97228.34;2086317;28;21052;-75
2022/01/05 01:12:48;;;;;;;27.90;25.70;;;;;;;6.35;100.00;97247.66;2085880;28;20617;-75
2022/01/05 01:13:49;;;;;;;26.00;24.20;;;;;;;6.36;100.00;97243.91;2086233;28;20222;-75
2022/01/05 01:14:50;;;;;;;24.90;23.00;;;;;;;6.35;100.00;97242.34;2086145;28;20251;-75
2022/01/05 01:15:52;;;;;;;23.73;22.02;;;;;;;6.31;100.00;97244.06;2086164;28;20218;-75
2022/01/05 01:16:54;;;;;;;25.40;23.70;;;;;;;6.31;100.00;97244.84;2086181;28;20789;-74
2022/01/05 01:17:55;;;;;;;23.50;21.88;;;;;;;6.31;100.00;97233.47;2087513;28;20284;-74
2022/01/05 01:18:56;;;;;;;22.80;21.10;;;;;;;6.30;100.00;97232.69;2087622;28;20260;-74
2022/01/05 01:19:57;;;;;;;23.15;21.55;;;;;;;6.28;100.00;97234.09;2087563;28;20222;-74
2022/01/05 01:20:59;;;;;;;24.23;22.63;;;;;;;6.23;100.00;97238.44;2087612;28;20247;-74
2022/01/05 01:21:59;;;;;;;23.77;22.08;;;;;;;6.20;100.00;97239.09;2087505;28;20229;-74
2022/01/05 01:23:06;;;;;;;22.97;21.47;;;;;;;6.16;100.00;97238.13;2087660;28;20309;-74
2022/01/05 01:24:09;;;;;;;26.90;25.13;;;;;;;6.22;100.00;97242.19;2087122;28;20226;-75
2022/01/05 01:25:11;;;;;;;24.77;23.08;;;;;;;6.17;100.00;97234.41;2087359;28;20657;-74
2022/01/05 01:26:12;;;;;;;25.13;23.27;;;;;;;6.18;100.00;97243.91;2088262;28;20227;-75
2022/01/05 01:27:14;;;;;;;23.83;22.13;;;;;;;6.22;100.00;97252.00;2088199;28;20225;-75
2022/01/05 01:28:14;;;;;;;25.02;23.23;;;;;;;6.21;100.00;97251.22;2088076;28;20222;-75
2022/01/05 01:29:16;;;;;;;23.80;22.10;;;;;;;6.18;100.00;97259.81;2088389;28;20302;-75
2022/01/05 01:30:17;;;;;;;23.40;21.70;;;;;;;6.23;100.00;97258.84;2087504;28;20231;-75
2022/01/05 01:31:20;;;;;;;23.87;22.07;;;;;;;6.20;100.00;97259.47;2087520;28;20341;-75
2022/01/05 01:32:20;;;;;;;25.08;23.17;;;;;;;6.20;100.00;97254.19;2087715;28;20701;-75
2022/01/05 01:33:22;;;;;;;24.30;22.60;;;;;;;6.17;100.00;97246.88;2079245;28;20590;-75
2022/01/05 01:34:23;;;;;;;23.98;22.17;;;;;;;6.19;100.00;97242.03;2086990;28;20720;-75
2022/01/05 01:35:25;;;;;;;23.37;21.37;;;;;;;6.17;100.00;97247.66;2087250;28;20652;-75
2022/01/05 01:36:26;;;;;;;25.00;23.10;;;;;;;6.16;100.00;97248.72;2095700;28;20759;-75
2022/01/05 01:37:28;;;;;;;24.57;22.57;;;;;;;6.15;100.00;97246.38;2087395;28;20657;-74
2022/01/05 01:38:29;;;;;;;24.77;22.88;;;;;;;6.15;100.00;97241.88;2087730;28;20261;-75
2022/01/05 01:39:32;;;;;;;25.93;23.83;;;;;;;6.16;100.00;97243.44;2087354;28;20223;-75
2022/01/05 01:40:33;;;;;;;27.15;25.05;;;;;;;6.16;100.00;97238.13;2087533;28;20459;-75
2022/01/05 01:41:35;;;;;;;26.10;24.00;;;;;;;6.12;100.00;97237.22;2087426;28;20223;-75
2022/01/05 01:42:36;;;;;;;27.77;25.23;;;;;;;6.18;100.00;97241.25;2079158;28;20465;-75
2022/01/05 01:43:38;;;;;;;31.13;28.67;;;;;;;6.17;100.00;97238.94;2078997;28;20234;-75
2022/01/05 01:44:38;;;;;;;30.08;27.40;;;;;;;6.19;100.00;97236.75;2087065;28;20226;-75
2022/01/05 01:45:41;;;;;;;28.70;26.13;;;;;;;6.20;100.00;97239.09;2088067;28;20237;-75
2022/01/05 01:46:42;;;;;;;27.75;25.23;;;;;;;6.18;100.00;97237.84;2087231;28;20222;-75
2022/01/05 01:47:45;;;;;;;30.10;27.30;;;;;;;6.15;100.00;97236.56;2079161;28;20216;-75
2022/01/05 01:48:46;;;;;;;30.75;27.55;;;;;;;6.14;100.00;97245.63;2087305;28;20723;-75
2022/01/05 01:49:48;;;;;;;28.37;25.67;;;;;;;6.14;100.00;97247.47;2087532;28;20563;-75
2022/01/05 01:50:48;;;;;;;29.67;27.00;;;;;;;6.17;100.00;97245.00;2087459;28;20223;-75
2022/01/05 01:51:50;;;;;;;30.40;27.70;;;;;;;6.16;100.00;97240.78;2087373;28;20230;-75
2022/01/05 01:52:51;;;;;;;29.38;26.63;;;;;;;6.14;100.00;97245.63;2087378;28;20219;-75
2022/01/05 01:53:53;;;;;;;31.80;28.90;;;;;;;6.12;100.00;97252.31;2087067;28;20219;-75
2022/01/05 01:54:55;;;;;;;30.65;27.50;;;;;;;6.11;100.00;97237.53;2087252;28;20589;-75
2022/01/05 01:55:59;;;;;;;28.40;25.67;;;;;;;6.08;100.00;97246.88;2087438;28;20317;-75
2022/01/05 01:56:59;;;;;;;28.27;25.48;;;;;;;6.10;100.00;97244.69;2088116;28;20249;-75
2022/01/05 01:58:01;;;;;;;28.53;25.83;;;;;;;6.09;100.00;97252.94;2088065;28;20250;-75
2022/01/05 01:59:03;;;;;;;31.27;28.25;;;;;;;6.08;100.00;97251.38;2088070;28;20218;-75
2022/01/05 02:00:08;;;;;;;31.02;28.10;;;;;;;6.09;100.00;97259.03;2087206;28;20239;-75
2022/01/05 02:01:16;;;;;;;28.90;26.27;;;;;;;6.11;100.00;97251.53;2079967;28;20227;-74
2022/01/05 02:02:18;;;;;;;28.45;25.67;;;;;;;6.14;100.00;97250.91;2087417;28;20222;-75
2022/01/05 02:03:19;;;;;;;29.65;26.83;;;;;;;6.15;100.00;97265.69;2088000;28;20669;-75
2022/01/05 02:04:21;;;;;;;27.70;25.20;;;;;;;6.09;100.00;97259.03;2087827;28;20603;-75
2022/01/05 02:05:22;;;;;;;30.10;26.48;;;;;;;6.07;100.00;97271.75;2087685;28;20677;-75
2022/01/05 02:06:24;;;;;;;31.43;28.43;;;;;;;6.03;100.00;97265.53;2087043;28;20638;-75
2022/01/05 02:07:25;;;;;;;30.02;27.00;;;;;;;6.03;100.00;97268.19;2079226;28;20678;-75
2022/01/05 02:08:26;;;;;;;29.73;27.03;;;;;;;6.05;100.00;97268.66;2087090;28;20219;-75
2022/01/05 02:09:28;;;;;;;30.08;27.15;;;;;;;6.00;100.00;97271.47;2087913;28;20233;-75
2022/01/05 02:10:32;;;;;;;29.43;26.67;;;;;;;6.07;100.00;97276.28;2087480;28;20218;-75
2022/01/05 02:11:33;;;;;;;30.40;27.23;;;;;;;6.07;100.00;97276.28;2087139;28;20240;-75
2022/01/05 02:12:35;;;;;;;29.48;26.50;;;;;;;6.04;100.00;97277.69;2087393;28;20227;-74
2022/01/05 02:13:39;;;;;;;30.17;27.00;;;;;;;6.03;100.00;97270.84;2087989;28;20689;-74
2022/01/05 02:14:40;;;;;;;29.67;26.77;;;;;;;6.03;100.00;97281.44;2087599;28;20727;-75
2022/01/05 02:15:42;;;;;;;28.33;25.60;;;;;;;6.04;100.00;97276.91;2087988;28;21233;-75
2022/01/05 02:16:45;;;;;;;31.25;27.90;;;;;;;6.03;100.00;97281.44;2087953;28;20234;-75
2022/01/05 02:17:54;;;;;;;30.67;27.58;;;;;;;6.03;100.00;97283.31;2087113;28;20252;-75
2022/01/05 02:19:01;;;;;;;30.50;26.88;;;;;;;6.03;100.00;97289.38;2079525;28;20227;-75
2022/01/05 02:20:13;;;;;;;29.45;26.58;;;;;;;6.09;100.00;97284.72;2079899;28;20227;-75
2022/01/05 02:21:17;;;;;;;30.40;27.33;;;;;;;6.08;100.00;97286.59;2080255;28;20219;-75
2022/01/05 02:22:17;;;;;;;28.38;25.55;;;;;;;6.09;100.00;97284.72;2087185;28;20230;-75
2022/01/05 02:23:19;;;;;;;28.90;26.03;;;;;;;6.09;100.00;97284.72;2087757;28;20701;-74
2022/01/05 02:24:21;;;;;;;31.25;27.95;;;;;;;6.09;100.00;97284.72;2087766;28;20235;-74
2022/01/05 02:25:22;;;;;;;29.25;26.17;;;;;;;6.12;100.00;97292.03;2086646;28;20226;-74
2022/01/05 02:26:24;;;;;;;28.92;26.23;;;;;;;6.10;100.00;97292.34;2087120;28;20284;-75
2022/01/05 02:27:25;;;;;;;32.15;28.90;;;;;;;6.09;100.00;97287.38;2087845;28;20222;-75
2022/01/05 02:28:27;;;;;;;29.37;26.47;;;;;;;6.04;100.00;97288.28;2087757;28;20223;-75
2022/01/05 02:29:28;;;;;;;28.90;26.08;;;;;;;6.05;100.00;97281.91;2087021;28;20234;-75
2022/01/05 02:30:30;;;;;;;32.47;29.20;;;;;;;6.06;100.00;97288.75;2087095;28;20215;-75
2022/01/05 02:31:31;;;;;;;29.75;26.77;;;;;;;6.05;100.00;97295.13;2086831;28;20258;-75
2022/01/05 02:32:32;;;;;;;29.05;25.85;;;;;;;6.05;100.00;97291.69;2078947;28;20226;-75
2022/01/05 02:33:34;;;;;;;35.43;27.03;;;;;;;6.04;100.00;97284.84;2078364;28;20246;-75
2022/01/05 02:34:37;;;;;;;30.10;27.05;;;;;;;6.05;100.00;97284.53;2087167;28;20254;-75
2022/01/05 02:35:39;;;;;;;29.15;26.05;;;;;;;6.07;100.00;97285.00;2086611;28;20242;-75
2022/01/05 02:36:42;;;;;;;30.20;27.20;;;;;;;6.08;100.00;97286.59;2078633;28;20231;-75
2022/01/05 02:37:44;;;;;;;31.20;26.90;;;;;;;6.06;100.00;97290.63;2087019;28;20227;-75
2022/01/05 02:38:47;;;;;;;30.95;27.85;;;;;;;6.04;100.00;97284.84;2086918;28;20222;-75
2022/01/05 02:39:47;;;;;;;31.17;27.88;;;;;;;6.02;100.00;97289.69;2078765;28;20707;-75
2022/01/05 02:40:51;;;;;;;30.13;27.27;;;;;;;6.00;100.00;97286.56;2087003;28;20653;-75
2022/01/05 02:41:54;;;;;;;31.02;28.13;;;;;;;5.98;100.00;97284.22;2094692;28;20312;-75
2022/01/05 02:42:57;;;;;;;31.52;28.35;;;;;;;6.00;100.00;97290.00;2086830;28;20238;-75
2022/01/05 02:43:59;;;;;;;31.00;28.00;;;;;;;5.99;100.00;97290.28;2078931;28;20739;-75
2022/01/05 02:45:00;;;;;;;31.13;27.90;;;;;;;5.94;100.00;97283.28;2086843;28;20215;-75
2022/01/05 02:46:01;;;;;;;32.50;29.30;;;;;;;5.91;100.00;97289.22;2087043;28;20298;-75
2022/01/05 02:47:02;;;;;;;30.95;27.95;;;;;;;5.89;100.00;97293.97;2087568;28;20221;-74
2022/01/05 02:48:07;;;;;;;32.45;29.25;;;;;;;5.88;100.00;97289.78;2087734;28;20683;-75
2022/01/05 02:49:07;;;;;;;32.65;29.77;;;;;;;5.87;100.00;97288.22;2086320;28;20222;-75
2022/01/05 02:50:12;;;;;;;32.17;29.00;;;;;;;5.81;100.00;97300.81;2078589;28;20698;-75
2022/01/05 02:51:14;;;;;;;31.63;28.73;;;;;;;5.78;100.00;97284.78;2086999;28;20222;-74
2022/01/05 02:52:16;;;;;;;31.88;28.50;;;;;;;5.76;100.00;97287.72;2087689;28;20217;-75
2022/01/05 02:53:18;;;;;;;29.55;26.83;;;;;;;5.75;100.00;97282.75;2086903;28;20731;-75
2022/01/05 02:54:24;;;;;;;31.75;28.70;;;;;;;5.71;100.00;97284.44;2086879;28;20235;-75
2022/01/05 02:55:27;;;;;;;30.17;27.27;;;;;;;5.71;100.00;97284.44;2087171;28;20233;-74
2022/01/05 02:56:28;;;;;;;30.80;27.75;;;;;;;5.67;100.00;97295.66;2087548;28;20255;-74
2022/01/05 02:57:30;;;;;;;29.25;26.30;;;;;;;5.63;100.00;97286.75;2086770;28;20218;-74
2022/01/05 02:58:31;;;;;;;30.10;26.85;;;;;;;5.68;100.00;97288.50;2078419;28;20277;-75
2022/01/05 02:59:32;;;;;;;29.52;26.52;;;;;;;5.67;100.00;97281.66;2078766;28;20237;-75
2022/01/05 03:00:34;;;;;;;28.67;25.77;;;;;;;5.70;100.00;97290.81;2078507;28;20305;-75
2022/01/05 03:01:36;;;;;;;28.98;25.88;;;;;;;5.74;100.00;97294.44;2086715;28;20221;-75
2022/01/05 03:02:41;;;;;;;29.88;26.90;;;;;;;5.67;100.00;97279.78;2086502;28;20234;-75
2022/01/05 03:03:43;;;;;;;28.23;25.30;;;;;;;5.75;100.00;97293.34;2087078;28;20325;-75
2022/01/05 03:04:43;;;;;;;30.20;27.15;;;;;;;5.74;100.00;97289.13;2095120;28;20229;-75
2022/01/05 03:05:46;;;;;;;30.90;28.00;;;;;;;5.76;100.00;97281.66;2087554;28;20748;-74
2022/01/05 03:06:46;;;;;;;28.85;26.05;;;;;;;5.73;100.00;97267.16;2087545;28;20577;-74
2022/01/05 03:07:49;;;;;;;29.27;26.37;;;;;;;5.72;100.00;97264.84;2087524;28;20301;-74
2022/01/05 03:08:54;;;;;;;28.90;26.00;;;;;;;5.71;100.00;97263.28;2087327;28;20223;-75
2022/01/05 03:09:57;;;;;;;29.20;26.30;;;;;;;5.72;100.00;97265.59;2086109;28;20245;-75
2022/01/05 03:10:59;;;;;;;29.52;26.63;;;;;;;5.71;100.00;97260.63;2086670;28;20246;-75
2022/01/05 03:12:00;;;;;;;29.55;26.55;;;;;;;5.73;100.00;97261.09;2086706;28;20658;-75
2022/01/05 03:13:02;;;;;;;27.80;24.97;;;;;;;5.74;100.00;97263.47;2087522;28;20231;-75
2022/01/05 03:14:02;;;;;;;29.13;26.25;;;;;;;5.75;100.00;97274.81;2086581;28;20223;-74
2022/01/05 03:15:05;;;;;;;28.27;25.47;;;;;;;5.74;100.00;97268.75;2078294;28;20313;-75
2022/01/05 03:16:09;;;;;;;28.92;26.10;;;;;;;5.73;100.00;97272.47;2086640;28;20233;-75
2022/01/05 03:17:12;;;;;;;30.25;27.35;;;;;;;5.75;100.00;97274.81;2086361;28;20230;-75
2022/01/05 03:18:14;;;;;;;28.38;25.75;;;;;;;5.75;100.00;97275.59;2094858;28;20310;-74
2022/01/05 03:19:15;;;;;;;29.27;26.58;;;;;;;5.79;100.00;97270.47;2094907;28;20225;-75
2022/01/05 03:20:19;;;;;;;28.43;25.77;;;;;;;5.73;100.00;97267.16;2087350;28;20302;-75
2022/01/05 03:21:20;;;;;;;28.75;25.95;;;;;;;5.73;100.00;97266.38;2087405;28;20243;-75
2022/01/05 03:22:23;;;;;;;29.40;26.60;;;;;;;5.78;100.00;97268.91;2086538;28;20303;-75
2022/01/05 03:23:27;;;;;;;28.98;26.20;;;;;;;5.72;100.00;97256.91;2086043;28;20276;-75
2022/01/05 03:24:27;;;;;;;28.55;25.73;;;;;;;5.67;100.00;97258.59;2086604;28;20550;-75
2022/01/05 03:25:29;;;;;;;28.13;25.50;;;;;;;5.69;100.00;97255.66;2086755;28;20385;-75
2022/01/05 03:26:30;;;;;;;26.42;23.90;;;;;;;5.68;100.00;97248.81;2086636;28;20235;-75
2022/01/05 03:27:32;;;;;;;29.70;26.80;;;;;;;5.68;100.00;97239.00;2078533;28;20231;-76
2022/01/05 03:28:33;;;;;;;28.48;25.77;;;;;;;5.67;100.00;97234.03;2086643;28;20681;-75
2022/01/05 03:29:34;;;;;;;27.67;25.15;;;;;;;5.66;100.00;97233.25;2087128;28;20229;-75
2022/01/05 03:30:41;;;;;;;27.80;25.10;;;;;;;5.65;100.00;97229.03;2087260;28;20222;-76
2022/01/05 03:31:43;;;;;;;27.40;24.60;;;;;;;5.70;100.00;97229.97;2086864;28;20226;-76
2022/01/05 03:33:05;;;;;;;28.00;25.30;;;;;;;5.68;100.00;97223.13;2087205;28;20222;-76
2022/01/05 03:34:08;;;;;;;28.20;25.27;;;;;;;5.63;100.00;97227.78;2086280;28;20742;-76
2022/01/05 03:35:09;;;;;;;26.85;24.42;;;;;;;5.64;100.00;97222.16;2086381;28;20238;-76
2022/01/05 03:36:11;;;;;;;29.17;26.20;;;;;;;5.64;100.00;97222.16;2086459;28;20357;-76
2022/01/05 03:37:13;;;;;;;28.17;25.27;;;;;;;5.63;100.00;97220.63;2086564;28;20231;-76
2022/01/05 03:38:18;;;;;;;29.58;26.63;;;;;;;5.66;100.00;97216.59;2086739;28;20228;-76
2022/01/05 03:39:20;;;;;;;36.17;26.40;;;;;;;5.66;100.00;97213.94;2087113;28;20222;-76
2022/01/05 03:40:22;;;;;;;28.15;25.40;;;;;;;5.68;100.00;97227.63;2086368;28;20222;-76
2022/01/05 03:41:23;;;;;;;27.15;24.52;;;;;;;5.68;100.00;97223.13;2077983;28;20215;-76
2022/01/05 03:42:24;;;;;;;27.10;24.50;;;;;;;5.67;100.00;97229.50;2086475;28;20305;-77
2022/01/05 03:43:27;;;;;;;27.25;24.48;;;;;;;5.67;100.00;97229.50;2094662;28;20229;-77
2022/01/05 03:44:29;;;;;;;27.20;24.70;;;;;;;5.66;100.00;97235.13;2087125;28;20222;-77
2022/01/05 03:45:30;;;;;;;27.23;24.35;;;;;;;5.66;100.00;97235.13;2087266;28;20211;-76
2022/01/05 03:46:32;;;;;;;26.67;23.92;;;;;;;5.66;100.00;97225.31;2086745;28;20265;-77
2022/01/05 03:47:32;;;;;;;27.23;24.48;;;;;;;5.67;100.00;97226.84;2086596;28;20215;-77
2022/01/05 03:48:34;;;;;;;27.43;24.83;;;;;;;5.62;100.00;97216.41;2087253;28;20257;-77
2022/01/05 03:49:35;;;;;;;27.85;25.05;;;;;;;5.63;100.00;97214.53;2086505;28;20269;-77
2022/01/05 03:50:37;;;;;;;28.37;25.67;;;;;;;5.63;100.00;97217.97;2086220;28;20254;-77
2022/01/05 03:51:40;;;;;;;26.58;23.98;;;;;;;5.64;100.00;97216.88;2086048;28;20743;-77
2022/01/05 03:52:42;;;;;;;27.17;24.50;;;;;;;5.62;100.00;97213.78;2086348;28;20245;-77
2022/01/05 03:53:44;;;;;;;27.83;25.10;;;;;;;5.64;100.00;97214.22;2086543;28;20261;-76
2022/01/05 03:54:46;;;;;;;27.25;24.83;;;;;;;5.63;100.00;97212.69;2086340;28;20215;-77
2022/01/05 03:55:48;;;;;;;26.42;24.10;;;;;;;5.62;100.00;97219.06;2086477;28;20260;-76
2022/01/05 03:56:49;;;;;;;27.65;24.67;;;;;;;5.64;100.00;97226.69;2087280;28;20210;-77
2022/01/05 03:57:54;;;;;;;29.00;26.10;;;;;;;5.62;100.00;97220.94;2087291;28;20302;-78
2022/01/05 03:58:56;;;;;;;27.45;24.75;;;;;;;5.68;100.00;97223.13;2086785;28;20222;-77
2022/01/05 03:59:58;;;;;;;27.52;25.00;;;;;;;5.71;100.00;97226.22;2086355;28;20737;-77
2022/01/05 04:01:00;;;;;;;27.73;25.02;;;;;;;5.68;100.00;97228.41;2086391;28;20226;-77
2022/01/05 04:02:01;;;;;;;26.35;23.95;;;;;;;5.66;100.00;97227.94;2087324;28;20241;-77
2022/01/05 04:03:02;;;;;;;29.03;26.17;;;;;;;5.72;100.00;97235.72;2086660;28;20264;-77
2022/01/05 04:04:04;;;;;;;29.67;26.88;;;;;;;5.72;100.00;97228.56;2086393;28;20222;-77
2022/01/05 04:05:07;;;;;;;27.50;24.80;;;;;;;5.72;100.00;97225.91;2087060;28;20284;-77
2022/01/05 04:06:10;;;;;;;26.98;24.50;;;;;;;5.76;100.00;97223.44;2086701;28;20226;-76
2022/01/05 04:07:10;;;;;;;29.08;26.27;;;;;;;5.77;100.00;97215.19;2087259;28;20229;-77
2022/01/05 04:08:13;;;;;;;27.30;24.83;;;;;;;5.73;100.00;97218.75;2086282;28;20227;-78
2022/01/05 04:09:14;;;;;;;27.52;24.60;;;;;;;5.71;100.00;97220.94;2077912;28;20230;-77
2022/01/05 04:10:17;;;;;;;27.43;24.73;;;;;;;5.70;100.00;97222.03;2070053;28;20227;-78
2022/01/05 04:11:18;;;;;;;27.67;24.98;;;;;;;5.71;100.00;97236.81;2070830;28;20772;-77
2022/01/05 04:12:22;;;;;;;28.00;25.40;;;;;;;5.71;100.00;97239.47;2070761;28;20231;-78
2022/01/05 04:13:24;;;;;;;27.73;25.13;;;;;;;5.70;100.00;97240.56;2070165;28;20227;-77
2022/01/05 04:14:25;;;;;;;26.98;24.45;;;;;;;5.66;100.00;97246.47;2070542;28;20228;-77
2022/01/05 04:15:27;;;;;;;28.10;25.40;;;;;;;5.70;100.00;97248.50;2069796;28;20239;-77
2022/01/05 04:16:27;;;;;;;27.23;24.55;;;;;;;5.71;100.00;97256.13;2070150;28;20223;-77
2022/01/05 04:17:29;;;;;;;27.00;24.40;;;;;;;5.71;100.00;97269.34;2069959;28;20232;-77
2022/01/05 04:18:31;;;;;;;26.10;23.63;;;;;;;5.70;100.00;97269.66;2069944;28;20276;-77
2022/01/05 04:19:32;;;;;;;26.58;23.92;;;;;;;5.72;100.00;97270.13;2069975;28;20224;-77
2022/01/05 04:20:34;;;;;;;26.00;23.50;;;;;;;5.71;100.00;97271.22;2061835;28;20754;-77
2022/01/05 04:21:35;;;;;;;25.88;23.33;;;;;;;5.73;100.00;97269.03;2061852;28;20221;-77
2022/01/05 04:22:37;;;;;;;26.33;23.93;;;;;;;5.71;100.00;97272.00;2070020;28;20231;-77
2022/01/05 04:23:37;;;;;;;25.60;23.13;;;;;;;5.76;100.00;97268.44;2070370;28;20227;-77
2022/01/05 04:24:39;;;;;;;25.93;23.47;;;;;;;5.73;100.00;97271.69;2069739;28;20230;-76
2022/01/05 04:25:41;;;;;;;26.38;23.75;;;;;;;5.73;100.00;97269.81;2070158;28;20326;-77
2022/01/05 04:26:46;;;;;;;26.50;23.98;;;;;;;5.74;100.00;97267.97;2062161;28;20239;-77
2022/01/05 04:27:47;;;;;;;25.52;23.08;;;;;;;5.76;100.00;97273.72;2063368;28;20613;-77
2022/01/05 04:28:49;;;;;;;24.40;22.07;;;;;;;5.78;100.00;97268.91;2070125;28;20220;-78
2022/01/05 04:29:49;;;;;;;27.48;24.00;;;;;;;5.78;100.00;97267.03;2069893;28;20224;-78
2022/01/05 04:30:51;;;;;;;25.43;22.93;;;;;;;5.78;100.00;97263.59;2069714;28;20231;-78
2022/01/05 04:31:52;;;;;;;27.90;25.10;;;;;;;5.76;100.00;97263.13;2061499;28;20217;-77
2022/01/05 04:32:54;;;;;;;26.37;23.67;;;;;;;5.74;100.00;97263.47;2069851;28;20228;-78
2022/01/05 04:33:55;;;;;;;26.58;23.95;;;;;;;5.76;100.00;97266.56;2070615;28;20255;-78
2022/01/05 04:34:57;;;;;;;27.27;23.73;;;;;;;5.77;100.00;97270.00;2070609;28;20279;-78
2022/01/05 04:35:58;;;;;;;26.00;23.40;;;;;;;5.80;100.00;97274.66;2069732;28;20231;-78
2022/01/05 04:36:59;;;;;;;25.87;23.27;;;;;;;5.83;100.00;97274.84;2061774;28;20231;-78
2022/01/05 04:38:00;;;;;;;26.85;24.15;;;;;;;5.89;100.00;97270.16;2061802;28;20647;-78
2022/01/05 04:39:02;;;;;;;26.70;23.90;;;;;;;5.93;100.00;97271.16;2069873;28;20224;-78
2022/01/05 04:40:04;;;;;;;25.95;22.95;;;;;;;5.91;100.00;97268.03;2069865;28;20530;-78
2022/01/05 04:41:10;;;;;;;25.42;22.83;;;;;;;5.87;100.00;97264.41;2061917;28;20224;-78
2022/01/05 04:42:11;;;;;;;25.77;23.15;;;;;;;5.88;100.00;97268.59;2061764;28;20250;-77
2022/01/05 04:43:13;;;;;;;25.45;22.95;;;;;;;5.84;100.00;97263.16;2069753;28;20274;-77
2022/01/05 04:44:14;;;;;;;25.80;23.17;;;;;;;5.83;100.00;97268.75;2069914;28;20223;-78
2022/01/05 04:45:16;;;;;;;25.73;23.03;;;;;;;5.83;100.00;97274.84;2070501;28;20235;-77